Time;durP1;ratioP1;P1;durP2;ratioP2;P2;SDS_P1;SDS_P2;PMS_P1;PMS_P2;Temp;Humidity;BMP_temperature;BMP_pressure;BME280_temperature;BME280_humidity;BME280_pressure;Samples;Min_cycle;Max_cycle;Signal;HPM_P1;HPM_P2
2022/07/14 00:02:20;;;;;;;2.80;1.02;;;22.90;60.50;;;;;;5050029;28;20064;-73
2022/07/14 00:04:48;;;;;;;2.58;1.17;;;23.00;60.60;;;;;;5050394;28;20048;-73
2022/07/14 00:07:15;;;;;;;2.72;1.05;;;22.90;60.50;;;;;;5052072;28;20045;-73
2022/07/14 00:09:41;;;;;;;3.08;1.27;;;22.90;60.50;;;;;;5051072;28;20048;-73
2022/07/14 00:12:08;;;;;;;4.03;1.33;;;22.90;60.50;;;;;;5050419;28;20132;-73
2022/07/14 00:14:35;;;;;;;2.90;1.15;;;22.90;60.50;;;;;;5049704;28;20053;-73
2022/07/14 00:17:01;;;;;;;2.20;1.10;;;22.90;60.50;;;;;;5050331;28;20123;-73
2022/07/14 00:19:28;;;;;;;2.78;1.30;;;22.90;60.50;;;;;;5050542;28;20059;-73
2022/07/14 00:21:57;;;;;;;3.50;1.30;;;22.80;60.50;;;;;;5050185;28;20052;-73
2022/07/14 00:24:23;;;;;;;1.65;0.95;;;22.80;60.50;;;;;;5050363;28;20498;-73
2022/07/14 00:26:50;;;;;;;3.20;1.33;;;22.80;60.50;;;;;;5050210;28;20514;-73
2022/07/14 00:29:17;;;;;;;4.78;1.30;;;22.80;60.50;;;;;;5049656;28;20139;-73
2022/07/14 00:31:44;;;;;;;3.35;1.20;;;22.80;60.50;;;;;;5050195;28;20056;-73
2022/07/14 00:34:11;;;;;;;2.42;1.20;;;22.80;60.50;;;;;;5050288;28;20557;-73
2022/07/14 00:36:38;;;;;;;1.88;1.10;;;22.80;60.50;;;;;;5052082;28;20461;-73
2022/07/14 00:46:28;;;;;;;2.58;1.10;;;22.70;60.40;;;;;;5041343;28;20601;-73
2022/07/14 00:48:55;;;;;;;4.00;1.50;;;22.70;60.60;;;;;;5050180;28;20144;-73
2022/07/14 00:51:21;;;;;;;2.85;1.30;;;22.70;60.60;;;;;;5050560;28;20057;-73
2022/07/14 00:53:51;;;;;;;2.08;1.17;;;22.60;60.50;;;;;;5051227;28;20110;-73
2022/07/14 00:56:18;;;;;;;2.50;1.08;;;22.70;60.50;;;;;;5050872;28;20057;-73
2022/07/14 00:58:44;;;;;;;2.90;1.10;;;22.60;60.40;;;;;;5051052;28;20405;-73
2022/07/14 01:01:11;;;;;;;2.63;1.30;;;22.60;60.50;;;;;;5050114;28;20128;-73
2022/07/14 01:03:39;;;;;;;2.10;1.10;;;22.60;60.50;;;;;;5050275;28;20045;-73
2022/07/14 01:06:06;;;;;;;3.78;1.20;;;22.60;60.50;;;;;;5050429;28;20128;-73
2022/07/14 01:08:33;;;;;;;2.28;1.10;;;22.60;60.50;;;;;;5051060;28;20044;-73
2022/07/14 01:10:59;;;;;;;2.55;1.20;;;22.60;60.50;;;;;;5050135;28;20063;-73
2022/07/14 01:13:26;;;;;;;2.58;1.10;;;22.60;60.50;;;;;;5050172;28;20088;-73
2022/07/14 01:15:53;;;;;;;2.78;1.20;;;22.60;60.50;;;;;;5051813;28;20051;-73
2022/07/14 01:18:19;;;;;;;2.03;1.10;;;22.60;60.50;;;;;;5067187;28;20048;-73
2022/07/14 01:20:48;;;;;;;2.28;1.20;;;22.60;60.50;;;;;;5050225;28;20053;-73
2022/07/14 01:23:16;;;;;;;1.65;1.00;;;22.70;60.50;;;;;;5049845;28;20119;-73
2022/07/14 01:25:43;;;;;;;3.72;1.40;;;24.00;61.20;;;;;;5050256;28;20053;-73
2022/07/14 01:28:11;;;;;;;1.60;1.00;;;22.50;60.40;;;;;;5049039;28;20047;-73
2022/07/14 01:30:37;;;;;;;2.47;1.20;;;23.20;60.80;;;;;;5049881;28;20135;-73
2022/07/14 01:33:04;;;;;;;3.55;1.25;;;22.50;60.40;;;;;;5050004;28;20063;-73
2022/07/14 01:35:31;;;;;;;1.98;1.00;;;22.40;60.40;;;;;;5066674;28;20135;-73
2022/07/14 01:37:58;;;;;;;2.03;1.08;;;22.60;60.50;;;;;;5049682;28;20049;-73
2022/07/14 01:40:26;;;;;;;2.17;1.20;;;22.50;60.40;;;;;;5049910;28;20056;-73
2022/07/14 01:42:53;;;;;;;1.77;1.20;;;22.50;60.40;;;;;;5066014;28;20056;-73
2022/07/14 01:45:20;;;;;;;2.53;1.05;;;22.50;60.40;;;;;;5049971;28;20566;-73
2022/07/14 01:47:47;;;;;;;3.17;1.30;;;22.40;60.40;;;;;;5049121;28;20053;-73
2022/07/14 01:50:14;;;;;;;2.08;1.30;;;22.40;60.90;;;;;;5049438;28;20052;-73
2022/07/14 01:52:40;;;;;;;2.28;1.10;;;22.20;61.50;;;;;;5050115;28;20128;-73
2022/07/14 01:55:08;;;;;;;1.98;0.98;;;22.40;60.40;;;;;;5050793;28;20063;-73
2022/07/14 01:57:36;;;;;;;2.42;1.20;;;22.40;60.40;;;;;;5049360;28;20610;-73
2022/07/14 02:00:04;;;;;;;2.70;1.10;;;22.40;60.40;;;;;;5065259;28;20052;-73
2022/07/14 02:02:31;;;;;;;2.55;1.30;;;22.40;60.40;;;;;;5047789;28;20052;-73
2022/07/14 02:04:58;;;;;;;2.10;0.90;;;22.30;60.30;;;;;;5047710;28;20179;-73
2022/07/14 02:07:24;;;;;;;1.85;1.10;;;22.30;60.30;;;;;;5048282;28;20045;-73
2022/07/14 02:12:37;;;;;;;1.73;1.00;;;22.20;60.30;;;;;;5049416;28;20084;-73
2022/07/14 02:15:05;;;;;;;2.75;1.25;;;22.30;60.30;;;;;;5047678;28;20127;-73
2022/07/14 02:17:32;;;;;;;3.22;1.20;;;22.30;60.30;;;;;;5048199;28;20049;-73
2022/07/14 02:19:59;;;;;;;2.08;1.13;;;22.30;60.40;;;;;;5048422;28;20597;-73
2022/07/14 02:22:25;;;;;;;2.25;1.15;;;22.30;60.30;;;;;;5047941;28;20055;-73
2022/07/14 02:24:52;;;;;;;2.25;0.98;;;22.40;60.40;;;;;;5031360;28;20564;-73
2022/07/14 02:27:20;;;;;;;3.63;1.58;;;22.20;60.30;;;;;;5047729;28;20055;-73
2022/07/14 02:29:48;;;;;;;1.88;1.10;;;22.20;60.30;;;;;;5064824;28;20052;-73
2022/07/14 02:32:15;;;;;;;2.22;1.20;;;22.20;60.30;;;;;;5064303;28;20141;-73
2022/07/14 02:34:41;;;;;;;2.33;1.30;;;22.20;60.30;;;;;;5047830;28;20055;-73
2022/07/14 02:37:08;;;;;;;3.33;1.10;;;22.20;60.30;;;;;;5047582;28;20072;-73
2022/07/14 02:39:35;;;;;;;2.33;1.20;;;22.20;60.30;;;;;;5047993;28;20060;-73
2022/07/14 02:42:01;;;;;;;2.50;1.13;;;22.20;60.30;;;;;;5048400;28;20584;-73
2022/07/14 02:44:28;;;;;;;2.78;1.20;;;22.10;60.20;;;;;;5064042;28;20048;-73
2022/07/14 02:46:56;;;;;;;2.03;1.00;;;22.10;60.20;;;;;;5048420;28;20044;-73
2022/07/14 02:49:23;;;;;;;2.15;1.10;;;22.10;60.20;;;;;;5047524;28;20081;-73
2022/07/14 02:51:49;;;;;;;2.35;1.02;;;22.10;60.30;;;;;;5048917;28;20055;-73
2022/07/14 02:54:17;;;;;;;2.50;1.27;;;22.10;60.30;;;;;;5047554;28;20133;-73
2022/07/14 02:56:44;;;;;;;2.78;1.13;;;22.10;60.20;;;;;;5047549;28;20508;-73
2022/07/14 02:59:13;;;;;;;2.00;0.90;;;22.10;60.30;;;;;;5048562;28;20426;-73
2022/07/14 03:01:40;;;;;;;3.80;1.30;;;22.10;60.30;;;;;;5048270;28;20406;-73
2022/07/14 03:04:08;;;;;;;4.00;1.30;;;22.10;60.30;;;;;;5047532;28;20076;-73
2022/07/14 03:06:34;;;;;;;2.15;1.08;;;22.10;60.20;;;;;;5048015;28;20413;-73
2022/07/14 03:09:01;;;;;;;3.47;1.20;;;22.00;60.20;;;;;;5047256;28;20063;-73
2022/07/14 03:11:28;;;;;;;1.73;1.00;;;22.00;60.20;;;;;;5047387;28;20554;-73
2022/07/14 03:13:54;;;;;;;2.90;1.15;;;22.00;60.20;;;;;;5048216;28;20053;-73
2022/07/14 03:16:21;;;;;;;1.63;0.90;;;22.00;60.10;;;;;;5047209;28;20076;-73
2022/07/14 03:18:48;;;;;;;2.83;1.13;;;22.00;60.10;;;;;;5047355;28;20053;-73
2022/07/14 03:21:16;;;;;;;2.92;1.25;;;22.00;60.10;;;;;;5047207;28;20141;-73
2022/07/14 03:23:42;;;;;;;2.03;1.00;;;22.00;60.10;;;;;;5048097;28;20057;-73
2022/07/14 03:26:09;;;;;;;2.45;1.10;;;22.00;60.20;;;;;;5046814;28;20141;-73
2022/07/14 03:28:36;;;;;;;3.22;1.10;;;22.00;60.20;;;;;;5047175;28;20044;-73
2022/07/14 03:31:03;;;;;;;2.30;1.00;;;21.90;60.10;;;;;;5047545;28;20053;-73
2022/07/14 03:33:30;;;;;;;2.58;1.00;;;21.90;60.10;;;;;;5047010;28;20136;-73
2022/07/14 03:35:56;;;;;;;1.75;1.10;;;21.90;60.20;;;;;;5047287;28;20061;-73
2022/07/14 03:38:24;;;;;;;1.42;0.98;;;21.90;60.10;;;;;;5063725;28;20055;-73
2022/07/14 03:40:52;;;;;;;1.20;0.90;;;21.90;60.10;;;;;;5047294;28;20761;-73
2022/07/14 03:43:18;;;;;;;1.98;1.02;;;21.90;60.10;;;;;;5046524;28;20132;-73
2022/07/14 03:45:45;;;;;;;2.42;1.20;;;21.90;60.10;;;;;;5047137;28;20084;-73
2022/07/14 03:48:12;;;;;;;3.25;1.30;;;22.00;60.20;;;;;;5048362;28;20107;-73
2022/07/14 03:50:38;;;;;;;2.28;0.98;;;21.80;60.00;;;;;;5047122;28;20063;-73
2022/07/14 03:53:05;;;;;;;2.30;1.00;;;21.80;60.00;;;;;;5047030;28;20724;-73
2022/07/14 03:55:33;;;;;;;1.95;1.10;;;21.80;60.00;;;;;;5046282;28;20063;-73
2022/07/14 03:58:01;;;;;;;2.33;1.08;;;22.50;61.80;;;;;;5047138;28;20128;-73
2022/07/14 04:00:27;;;;;;;1.80;1.08;;;21.80;60.00;;;;;;5047695;28;20603;-73
2022/07/14 04:02:54;;;;;;;2.15;1.08;;;21.80;60.00;;;;;;5047005;28;20049;-73
2022/07/14 04:05:21;;;;;;;2.03;0.90;;;21.70;60.00;;;;;;5048030;28;20049;-73
2022/07/14 04:07:48;;;;;;;1.45;0.93;;;21.80;60.00;;;;;;5046577;28;20124;-73
2022/07/14 04:10:15;;;;;;;1.25;0.90;;;21.70;61.10;;;;;;5046611;28;20052;-73
2022/07/14 04:12:43;;;;;;;1.23;1.00;;;21.80;60.00;;;;;;5046938;28;20053;-73
2022/07/14 04:15:10;;;;;;;1.08;0.95;;;21.70;59.90;;;;;;5047834;28;20128;-73
2022/07/14 04:17:36;;;;;;;1.45;0.98;;;21.70;59.90;;;;;;5063470;28;20055;-73
2022/07/14 04:20:04;;;;;;;2.63;1.08;;;21.40;59.60;;;;;;5046808;28;20056;-73
2022/07/14 04:22:30;;;;;;;2.47;1.02;;;21.70;59.80;;;;;;5063423;28;20092;-73
2022/07/14 04:24:57;;;;;;;2.63;1.30;;;21.70;59.90;;;;;;5064438;28;20065;-73
2022/07/14 04:27:24;;;;;;;2.05;1.20;;;21.70;59.90;;;;;;5050544;28;20413;-73
2022/07/14 04:29:52;;;;;;;1.70;0.95;;;21.70;59.90;;;;;;5050428;28;20132;-73
2022/07/14 04:32:21;;;;;;;1.25;1.00;;;23.20;60.60;;;;;;5049648;28;20053;-73
2022/07/14 04:34:48;;;;;;;0.95;0.90;;;21.70;59.90;;;;;;5049847;28;20425;-73
2022/07/14 04:37:15;;;;;;;1.95;1.13;;;21.70;59.80;;;;;;5050502;28;20490;-73
2022/07/14 04:39:41;;;;;;;2.17;1.15;;;21.70;59.80;;;;;;5049791;28;20055;-73
2022/07/14 04:42:08;;;;;;;1.70;0.90;;;21.60;59.70;;;;;;5049860;28;20132;-73
2022/07/14 04:44:35;;;;;;;2.22;1.10;;;22.70;61.90;;;;;;5050083;28;20053;-73
2022/07/14 04:47:03;;;;;;;2.00;1.10;;;21.60;59.70;;;;;;5049996;28;20136;-73
2022/07/14 04:52:14;;;;;;;1.80;0.95;;;21.60;59.70;;;;;;5049575;28;20049;-73
2022/07/14 04:54:42;;;;;;;1.63;0.90;;;21.60;59.80;;;;;;5049402;28;20055;-72
2022/07/14 04:57:08;;;;;;;1.52;1.08;;;21.60;59.70;;;;;;5050052;28;20049;-73
2022/07/14 04:59:35;;;;;;;2.60;1.23;;;21.60;59.70;;;;;;5050145;28;20131;-73
2022/07/14 05:02:03;;;;;;;1.65;1.13;;;21.60;59.70;;;;;;5049092;28;20053;-73
2022/07/14 05:04:30;;;;;;;1.02;0.82;;;22.40;61.60;;;;;;5049782;28;20053;-73
2022/07/14 05:06:57;;;;;;;2.95;1.15;;;21.60;59.80;;;;;;5049763;28;20062;-73
2022/07/14 05:09:25;;;;;;;1.20;0.93;;;21.60;59.70;;;;;;5049724;28;20060;-73
2022/07/14 05:11:52;;;;;;;1.40;0.93;;;21.60;59.70;;;;;;5049254;28;20418;-73
2022/07/14 05:14:18;;;;;;;1.48;0.82;;;21.50;59.70;;;;;;5050692;28;20132;-74
2022/07/14 05:16:45;;;;;;;1.73;1.00;;;21.60;60.30;;;;;;5066484;28;20053;-73
2022/07/14 05:19:13;;;;;;;2.20;1.10;;;21.50;59.60;;;;;;5050881;28;20136;-73
2022/07/14 05:21:40;;;;;;;1.13;0.90;;;21.50;59.60;;;;;;5049467;28;20124;-73
2022/07/14 05:24:07;;;;;;;1.77;1.10;;;21.50;59.60;;;;;;5049157;28;20140;-74
2022/07/14 05:26:34;;;;;;;1.65;0.93;;;21.50;59.60;;;;;;5049475;28;20063;-73
2022/07/14 05:29:01;;;;;;;2.65;1.20;;;21.50;59.60;;;;;;5048655;28;20055;-73
2022/07/14 05:31:27;;;;;;;2.35;1.35;;;21.50;59.60;;;;;;5048414;28;20053;-74
2022/07/14 05:33:55;;;;;;;1.83;1.17;;;21.50;59.50;;;;;;5049072;28;20741;-74
2022/07/14 05:36:24;;;;;;;2.30;1.02;;;21.50;59.50;;;;;;5049723;28;20057;-74
2022/07/14 05:38:50;;;;;;;1.60;0.90;;;21.50;59.50;;;;;;5049064;28;20691;-74
2022/07/14 05:41:19;;;;;;;1.50;1.05;;;21.50;59.60;;;;;;5049624;28;20247;-76
2022/07/14 05:43:46;;;;;;;3.45;1.00;;;21.50;59.50;;;;;;5048291;28;20055;-74
2022/07/14 05:46:12;;;;;;;1.80;1.10;;;21.50;59.50;;;;;;5048098;28;20049;-74
2022/07/14 05:48:39;;;;;;;1.92;1.05;;;21.50;59.70;;;;;;5048205;28;20142;-75
2022/07/14 05:51:07;;;;;;;1.63;1.10;;;21.60;59.50;;;;;;5029036;28;20133;-74
2022/07/14 05:53:35;;;;;;;2.08;1.20;;;21.60;59.50;;;;;;5065494;28;20136;-74
2022/07/14 05:56:02;;;;;;;2.33;1.00;;;21.60;59.40;;;;;;5049511;28;20052;-75
2022/07/14 05:58:29;;;;;;;1.38;1.00;;;21.70;60.00;;;;;;5048311;28;20126;-74
2022/07/14 06:00:57;;;;;;;2.00;1.10;;;21.70;59.40;;;;;;5048455;28;20643;-74
2022/07/14 06:03:24;;;;;;;1.90;1.20;;;21.90;59.40;;;;;;5047910;28;20520;-75
2022/07/14 06:05:51;;;;;;;2.60;1.10;;;21.90;59.20;;;;;;5048011;28;20131;-74
2022/07/14 06:08:18;;;;;;;5.30;1.30;;;22.00;59.00;;;;;;5048151;28;20049;-74
2022/07/14 06:10:49;;;;;;;1.83;1.10;;;22.20;59.00;;;;;;5050495;28;20045;-74
2022/07/14 06:13:16;;;;;;;2.45;1.20;;;22.30;58.80;;;;;;5064057;28;20052;-74
2022/07/14 06:15:44;;;;;;;2.33;1.08;;;22.50;58.70;;;;;;5046655;28;20156;-74
2022/07/14 06:18:11;;;;;;;3.08;1.33;;;22.50;58.50;;;;;;5047420;28;20132;-72
2022/07/14 06:20:40;;;;;;;2.10;1.08;;;22.80;60.60;;;;;;5048315;28;20056;-72
2022/07/14 06:23:09;;;;;;;1.88;1.00;;;22.80;58.10;;;;;;5047637;28;20144;-72
2022/07/14 06:25:36;;;;;;;2.72;1.08;;;22.90;57.90;;;;;;5049277;28;20080;-72
2022/07/14 06:28:04;;;;;;;1.48;1.00;;;23.00;57.80;;;;;;5049259;28;20084;-73
2022/07/14 06:30:31;;;;;;;1.80;1.05;;;23.10;57.60;;;;;;5048984;28;20051;-72
2022/07/14 06:32:58;;;;;;;1.85;1.08;;;23.30;58.10;;;;;;5047643;28;20502;-72
2022/07/14 06:35:25;;;;;;;2.22;0.98;;;23.40;57.30;;;;;;5048221;28;20085;-72
2022/07/14 06:37:53;;;;;;;2.53;1.00;;;23.50;57.20;;;;;;5048144;28;20063;-72
2022/07/14 06:40:20;;;;;;;2.70;1.10;;;23.70;57.10;;;;;;5064744;28;20049;-72
2022/07/14 06:42:47;;;;;;;3.03;1.23;;;23.70;57.00;;;;;;5031050;28;20062;-72
2022/07/14 06:45:15;;;;;;;4.10;1.33;;;23.80;56.90;;;;;;5048294;28;20059;-72
2022/07/14 06:47:42;;;;;;;3.80;1.70;;;23.90;56.90;;;;;;5047052;28;20059;-72
2022/07/14 06:50:09;;;;;;;4.55;1.60;;;24.00;56.80;;;;;;5047874;28;20470;-72
2022/07/14 06:52:37;;;;;;;3.90;1.70;;;24.00;56.70;;;;;;5046995;28;20232;-72
2022/07/14 06:55:04;;;;;;;4.53;1.90;;;24.10;56.60;;;;;;5048808;28;20095;-71
2022/07/14 06:57:31;;;;;;;4.38;1.70;;;24.10;56.50;;;;;;5064473;28;20596;-71
2022/07/14 06:59:58;;;;;;;5.13;1.63;;;24.20;56.40;;;;;;5047135;28;20135;-72
2022/07/14 07:02:26;;;;;;;8.25;1.75;;;24.30;56.30;;;;;;5047939;28;20124;-72
2022/07/14 07:07:33;;;;;;;4.60;1.30;;;24.40;56.00;;;;;;5046746;28;20103;-73
2022/07/14 07:10:00;;;;;;;3.67;1.38;;;24.40;55.70;;;;;;5048707;28;20160;-72
2022/07/14 07:12:28;;;;;;;3.97;1.60;;;24.40;55.10;;;;;;5047479;28;20059;-72
2022/07/14 07:14:55;;;;;;;3.35;1.20;;;24.40;54.60;;;;;;5047377;28;20052;-72
2022/07/14 07:17:21;;;;;;;4.30;1.20;;;24.30;54.20;;;;;;5047577;28;20131;-72
2022/07/14 07:19:49;;;;;;;2.35;1.00;;;24.30;53.80;;;;;;5048884;28;20124;-72
2022/07/14 07:22:16;;;;;;;3.88;1.20;;;24.30;53.70;;;;;;5047494;28;20059;-72
2022/07/14 07:24:43;;;;;;;4.32;1.20;;;24.20;53.50;;;;;;5046138;28;20128;-72
2022/07/14 07:27:09;;;;;;;2.33;0.85;;;24.20;53.50;;;;;;5048644;28;20051;-72
2022/07/14 07:29:36;;;;;;;6.72;1.70;;;23.20;53.10;;;;;;5047098;28;20059;-72
2022/07/14 07:32:03;;;;;;;2.60;1.10;;;24.00;53.60;;;;;;5047898;28;20045;-72
2022/07/14 07:34:31;;;;;;;3.03;1.00;;;24.00;53.60;;;;;;5048546;28;20122;-72
2022/07/14 07:36:59;;;;;;;2.80;1.02;;;24.00;53.80;;;;;;5047978;28;20045;-72
2022/07/14 07:39:25;;;;;;;3.42;1.20;;;24.00;53.80;;;;;;5047313;28;20479;-72
2022/07/14 07:41:55;;;;;;;3.90;1.50;;;24.00;53.80;;;;;;5047949;28;20045;-71
2022/07/14 07:44:21;;;;;;;2.53;1.02;;;24.00;53.70;;;;;;5046806;28;20056;-71
2022/07/14 07:46:48;;;;;;;2.28;1.08;;;24.00;53.90;;;;;;5047330;28;20067;-71
2022/07/14 07:49:15;;;;;;;3.72;1.20;;;24.10;54.00;;;;;;5046965;28;20045;-71
2022/07/14 07:51:42;;;;;;;4.15;1.15;;;24.20;54.00;;;;;;5046954;28;20041;-72
2022/07/14 07:54:10;;;;;;;3.80;1.20;;;24.20;54.00;;;;;;5047130;28;20132;-72
2022/07/14 07:56:37;;;;;;;2.70;1.20;;;24.30;54.00;;;;;;5048230;28;20048;-72
2022/07/14 07:59:04;;;;;;;2.35;1.05;;;24.40;54.10;;;;;;5049703;28;20068;-72
2022/07/14 08:01:31;;;;;;;1.70;0.90;;;24.30;53.90;;;;;;5047511;28;20052;-72
2022/07/14 08:03:57;;;;;;;3.63;1.10;;;24.40;53.90;;;;;;5049998;28;20124;-72
2022/07/14 08:06:24;;;;;;;2.55;1.00;;;24.50;54.00;;;;;;5050782;28;20641;-72
2022/07/14 08:08:51;;;;;;;3.85;1.33;;;24.50;54.00;;;;;;5050500;28;20051;-72
2022/07/14 08:11:19;;;;;;;2.88;1.00;;;24.60;54.00;;;;;;5051981;28;20413;-72
2022/07/14 08:13:45;;;;;;;2.67;1.00;;;24.70;54.00;;;;;;5050270;28;20088;-72
2022/07/14 08:16:12;;;;;;;2.97;1.00;;;24.90;54.00;;;;;;5050323;28;20053;-72
2022/07/14 08:18:39;;;;;;;2.47;0.90;;;24.80;54.00;;;;;;5067693;28;20059;-73
2022/07/14 08:21:06;;;;;;;3.45;1.00;;;24.80;54.00;;;;;;5066636;28;20117;-73
2022/07/14 08:23:33;;;;;;;2.65;1.00;;;24.80;54.10;;;;;;5049628;28;20156;-72
2022/07/14 08:26:00;;;;;;;2.75;1.20;;;24.80;54.10;;;;;;5049492;28;20417;-73
2022/07/14 08:28:28;;;;;;;1.17;0.80;;;24.80;54.20;;;;;;5049711;28;20068;-73
2022/07/14 08:30:54;;;;;;;1.92;1.00;;;24.90;54.20;;;;;;5050838;28;20047;-73
2022/07/14 08:33:21;;;;;;;2.10;0.90;;;24.90;54.20;;;;;;5048978;28;20083;-73
2022/07/14 08:35:48;;;;;;;1.52;0.90;;;24.90;54.20;;;;;;5048806;28;20049;-75
2022/07/14 08:38:15;;;;;;;0.90;0.77;;;24.90;54.20;;;;;;5051414;28;20498;-73
2022/07/14 08:40:42;;;;;;;2.28;0.93;;;24.90;54.20;;;;;;5050195;28;20410;-72
2022/07/14 08:43:09;;;;;;;3.58;0.80;;;24.90;54.30;;;;;;5050764;28;20076;-72
2022/07/14 08:45:41;;;;;;;1.55;0.82;;;24.80;54.30;;;;;;5051293;28;20055;-72
2022/07/14 08:48:08;;;;;;;1.83;0.80;;;24.60;55.60;;;;;;5049815;28;20056;-72
2022/07/14 08:50:35;;;;;;;2.05;1.05;;;24.90;54.40;;;;;;5050868;28;20048;-71
2022/07/14 08:53:03;;;;;;;1.98;1.00;;;24.90;54.40;;;;;;5049454;28;20528;-71
2022/07/14 08:55:30;;;;;;;2.30;0.98;;;24.90;54.40;;;;;;5049888;28;20091;-71
2022/07/14 08:57:57;;;;;;;1.83;0.93;;;24.90;54.40;;;;;;5049869;28;20056;-71
2022/07/14 09:00:25;;;;;;;2.08;1.17;;;24.90;54.40;;;;;;5049162;28;20063;-71
2022/07/14 09:02:54;;;;;;;3.08;0.90;;;24.90;54.40;;;;;;5050625;28;20056;-71
2022/07/14 09:05:20;;;;;;;1.13;0.73;;;24.90;54.40;;;;;;5050957;28;20155;-71
2022/07/14 09:07:47;;;;;;;1.25;1.00;;;24.90;54.40;;;;;;5051131;28;20409;-71
2022/07/14 09:10:15;;;;;;;1.88;0.80;;;24.90;54.40;;;;;;5049877;28;20044;-71
2022/07/14 09:12:42;;;;;;;2.72;0.80;;;24.80;54.40;;;;;;5050726;28;20513;-71
2022/07/14 09:17:57;;;;;;;3.20;0.90;;;24.80;54.40;;;;;;5030022;28;20427;-71
2022/07/14 09:20:24;;;;;;;1.85;0.90;;;24.80;54.50;;;;;;5030614;28;20045;-71
2022/07/14 09:22:54;;;;;;;1.27;0.70;;;24.80;54.40;;;;;;5032208;28;20124;-71
2022/07/14 09:25:21;;;;;;;1.67;1.00;;;24.80;54.40;;;;;;5049871;28;20048;-71
2022/07/14 09:27:48;;;;;;;2.65;0.80;;;24.80;54.40;;;;;;5049938;28;20151;-72
2022/07/14 09:30:15;;;;;;;3.30;1.00;;;23.70;54.10;;;;;;5048013;28;20124;-72
2022/07/14 09:32:43;;;;;;;2.75;1.05;;;24.80;54.40;;;;;;5050088;28;20049;-72
2022/07/14 09:35:11;;;;;;;2.63;0.90;;;24.80;54.40;;;;;;5049228;28;20047;-72
2022/07/14 09:37:39;;;;;;;3.85;1.00;;;24.80;54.40;;;;;;5048092;28;20049;-72
2022/07/14 09:40:07;;;;;;;1.45;0.70;;;24.70;54.40;;;;;;5048971;28;20094;-71
2022/07/14 09:42:55;;;;;;;1.40;0.98;;;24.70;54.40;;;;;;5047699;28;20267;-72
2022/07/14 09:45:23;;;;;;;3.20;0.88;;;24.80;54.40;;;;;;5050026;28;20037;-72
2022/07/14 09:47:58;;;;;;;2.35;0.80;;;24.70;54.40;;;;;;5037616;28;20642;-72
2022/07/14 09:50:47;;;;;;;1.52;0.82;;;24.80;54.50;;;;;;5030488;28;20092;-72
2022/07/14 09:53:19;;;;;;;1.38;0.80;;;24.80;54.50;;;;;;5042509;28;20089;-71
2022/07/14 09:55:51;;;;;;;2.70;0.75;;;24.60;54.50;;;;;;5049824;28;20543;-72
2022/07/14 09:58:19;;;;;;;2.85;1.35;;;24.70;54.60;;;;;;5048785;28;20063;-71
2022/07/14 10:00:46;;;;;;;2.10;1.00;;;24.60;54.60;;;;;;5049141;28;20520;-72
2022/07/14 10:03:13;;;;;;;1.75;1.00;;;24.70;54.70;;;;;;5048427;28;20057;-72
2022/07/14 10:05:39;;;;;;;2.35;1.10;;;24.70;54.70;;;;;;5049171;28;20049;-72
2022/07/14 10:08:08;;;;;;;1.63;0.70;;;24.70;54.70;;;;;;5048574;28;20059;-72
2022/07/14 10:10:35;;;;;;;1.67;0.90;;;24.60;54.60;;;;;;5049217;28;20437;-71
2022/07/14 10:13:04;;;;;;;1.92;0.80;;;24.70;54.70;;;;;;5048577;28;20080;-72
2022/07/14 10:15:31;;;;;;;3.40;0.98;;;24.60;54.70;;;;;;5049600;28;20437;-71
2022/07/14 10:17:57;;;;;;;1.50;0.70;;;24.60;54.70;;;;;;5049940;28;20397;-72
2022/07/14 10:20:24;;;;;;;3.08;0.80;;;24.60;54.70;;;;;;5047856;28;20053;-71
2022/07/14 10:22:51;;;;;;;2.30;0.90;;;24.60;54.60;;;;;;5048543;28;20509;-71
2022/07/14 10:25:19;;;;;;;2.00;0.80;;;24.60;54.70;;;;;;5049319;28;20059;-71
2022/07/14 10:27:46;;;;;;;2.22;0.75;;;24.60;54.60;;;;;;5048555;28;20139;-71
2022/07/14 10:30:12;;;;;;;2.88;0.90;;;24.60;54.60;;;;;;5049089;28;20562;-71
2022/07/14 10:32:47;;;;;;;1.90;0.90;;;24.60;54.60;;;;;;5049086;28;20099;-71
2022/07/14 10:35:21;;;;;;;2.30;0.93;;;24.60;54.60;;;;;;5049691;28;20049;-71
2022/07/14 10:38:07;;;;;;;2.08;1.00;;;24.50;54.60;;;;;;5046760;28;20055;-71
2022/07/14 10:40:38;;;;;;;3.60;0.80;;;24.50;54.60;;;;;;5046284;28;20145;-72
2022/07/14 10:43:06;;;;;;;1.30;0.70;;;24.50;54.60;;;;;;5047874;28;20128;-72
2022/07/14 10:45:33;;;;;;;1.88;0.70;;;24.50;54.70;;;;;;5044846;28;20052;-71
2022/07/14 10:48:00;;;;;;;1.33;0.80;;;24.50;54.70;;;;;;5047230;28;20053;-73
2022/07/14 10:50:27;;;;;;;2.15;0.90;;;24.40;54.70;;;;;;5046683;28;20053;-73
2022/07/14 10:53:04;;;;;;;2.15;0.77;;;24.50;54.70;;;;;;5047336;28;20485;-72
2022/07/14 10:55:37;;;;;;;3.17;0.82;;;24.50;54.70;;;;;;5047879;28;20140;-73
2022/07/14 10:58:26;;;;;;;1.42;0.82;;;25.60;57.20;;;;;;5047929;28;20048;-73
2022/07/14 11:00:57;;;;;;;1.75;0.80;;;24.40;54.70;;;;;;5047379;28;20045;-73
2022/07/14 11:03:25;;;;;;;1.15;0.68;;;24.40;54.80;;;;;;5048877;28;20037;-74
2022/07/14 11:06:11;;;;;;;2.33;0.95;;;24.40;54.80;;;;;;5047831;28;20502;-73
2022/07/14 11:08:39;;;;;;;2.45;0.80;;;24.40;54.80;;;;;;5047722;28;20083;-74
2022/07/14 11:11:18;;;;;;;1.10;0.70;;;24.40;54.80;;;;;;5046795;28;20112;-74
2022/07/14 11:14:09;;;;;;;2.35;0.68;;;24.40;54.80;;;;;;5047646;28;20057;-73
2022/07/14 11:16:56;;;;;;;1.45;0.90;;;24.40;54.90;;;;;;5047651;28;20056;-74
2022/07/14 11:19:24;;;;;;;1.77;0.82;;;24.40;54.90;;;;;;5047393;28;20049;-73
2022/07/14 11:22:14;;;;;;;1.17;0.70;;;24.40;55.00;;;;;;5046932;28;20510;-73
2022/07/14 11:24:48;;;;;;;2.60;0.70;;;24.40;54.90;;;;;;5047126;28;20147;-73
2022/07/14 11:27:48;;;;;;;1.08;0.70;;;24.30;54.90;;;;;;5047423;28;20057;-74
2022/07/14 11:30:29;;;;;;;1.60;0.77;;;24.30;55.00;;;;;;5008299;28;20056;-73
2022/07/14 11:33:07;;;;;;;1.98;0.88;;;24.30;55.10;;;;;;5046945;28;20052;-73
2022/07/14 11:38:34;;;;;;;1.40;0.70;;;24.30;55.10;;;;;;5051202;28;20092;-73
2022/07/14 11:41:02;;;;;;;1.08;0.60;;;24.20;55.10;;;;;;5050524;28;20529;-73
2022/07/14 11:43:54;;;;;;;1.70;0.70;;;24.20;55.10;;;;;;5049980;28;20049;-72
2022/07/14 11:46:21;;;;;;;1.20;0.70;;;24.20;55.10;;;;;;5049254;28;20056;-73
2022/07/14 11:48:50;;;;;;;2.05;0.77;;;24.20;55.40;;;;;;5051444;28;20514;-73
2022/07/14 11:51:22;;;;;;;1.30;0.90;;;24.10;55.30;;;;;;5051915;28;20055;-73
2022/07/14 11:53:54;;;;;;;2.08;0.80;;;24.10;55.30;;;;;;5066157;28;20049;-72
2022/07/14 11:56:22;;;;;;;0.90;0.70;;;24.10;55.40;;;;;;5049734;28;20068;-72
2022/07/14 11:58:50;;;;;;;4.03;0.93;;;24.10;55.50;;;;;;5050315;28;20064;-72
2022/07/14 12:01:18;;;;;;;2.00;0.80;;;24.00;55.40;;;;;;5051240;28;20107;-71
2022/07/14 12:03:45;;;;;;;2.65;1.23;;;24.00;55.40;;;;;;5050460;28;20136;-72
2022/07/14 12:06:12;;;;;;;1.20;0.75;;;23.90;55.50;;;;;;5051300;28;20049;-71
2022/07/14 12:08:40;;;;;;;2.70;0.90;;;23.90;55.40;;;;;;5050415;28;20405;-71
2022/07/14 12:11:09;;;;;;;1.85;0.75;;;23.90;55.40;;;;;;5049519;28;20124;-71
2022/07/14 12:13:46;;;;;;;1.48;0.85;;;23.90;55.40;;;;;;5048839;28;20061;-72
2022/07/14 12:16:12;;;;;;;1.90;0.90;;;23.90;55.40;;;;;;5048928;28;20053;-72
2022/07/14 12:18:41;;;;;;;1.77;0.90;;;23.90;55.50;;;;;;5050342;28;20044;-72
2022/07/14 12:21:07;;;;;;;2.30;1.00;;;23.90;55.50;;;;;;5049047;28;20055;-72
2022/07/14 12:23:35;;;;;;;2.65;0.80;;;23.90;55.60;;;;;;5048717;28;20148;-72
2022/07/14 12:26:02;;;;;;;2.05;0.88;;;23.90;55.50;;;;;;5050343;28;20069;-72
2022/07/14 12:28:29;;;;;;;2.45;1.10;;;24.00;55.60;;;;;;5050469;28;20053;-72
2022/07/14 12:30:56;;;;;;;5.50;2.03;;;24.00;55.70;;;;;;5051570;28;20056;-72
2022/07/14 12:33:24;;;;;;;8.13;2.80;;;24.00;55.50;;;;;;5049837;28;20080;-72
2022/07/14 12:35:54;;;;;;;8.85;3.13;;;24.00;55.60;;;;;;5050692;28;20132;-72
2022/07/14 12:38:21;;;;;;;8.75;3.20;;;24.00;55.50;;;;;;5051303;28;20053;-72
2022/07/14 12:40:48;;;;;;;7.82;3.60;;;24.00;55.60;;;;;;5029885;28;20049;-72
2022/07/14 12:43:15;;;;;;;9.38;2.95;;;24.10;55.60;;;;;;5031537;28;20503;-72
2022/07/14 12:46:02;;;;;;;8.70;3.05;;;24.10;55.60;;;;;;5049047;28;20052;-72
2022/07/14 12:48:29;;;;;;;7.72;3.00;;;24.00;55.40;;;;;;5050283;28;20052;-72
2022/07/14 12:50:57;;;;;;;8.43;2.78;;;24.00;55.40;;;;;;5051137;28;20624;-72
2022/07/14 12:53:24;;;;;;;7.63;2.90;;;24.10;55.40;;;;;;5049799;28;20421;-72
2022/07/14 12:55:59;;;;;;;9.77;3.53;;;24.00;55.40;;;;;;5050138;28;20061;-72
2022/07/14 12:58:27;;;;;;;10.73;4.05;;;24.10;55.30;;;;;;5049901;28;20092;-72
2022/07/14 13:00:54;;;;;;;10.98;4.28;;;24.00;55.30;;;;;;5049613;28;20051;-72
2022/07/14 13:03:21;;;;;;;12.32;4.78;;;24.00;55.40;;;;;;5049721;28;20059;-72
2022/07/14 13:05:53;;;;;;;10.63;3.67;;;24.00;55.40;;;;;;5049981;28;20134;-72
2022/07/14 13:08:33;;;;;;;12.32;4.00;;;24.00;55.30;;;;;;5049485;28;20053;-73
2022/07/14 13:11:00;;;;;;;10.27;3.63;;;23.90;55.30;;;;;;5049404;28;20049;-73
2022/07/14 13:13:30;;;;;;;9.50;3.90;;;24.00;55.40;;;;;;5050891;28;20053;-72